createdAt,value
2022-12-13T00:01:59.003Z,7.82
2022-12-13T00:04:26.658Z,7.45
2022-12-13T00:06:54.344Z,8.73
2022-12-13T00:09:22.053Z,7.55
2022-12-13T00:11:50.332Z,8.30
2022-12-13T00:14:17.938Z,6.80
2022-12-13T00:16:47.247Z,8.50
2022-12-13T00:19:14.794Z,8.27
2022-12-13T00:21:41.875Z,6.30
2022-12-13T00:24:08.872Z,7.22
2022-12-13T00:26:36.671Z,8.75
2022-12-13T00:29:06.338Z,7.70
2022-12-13T00:34:20.671Z,7.63
2022-12-13T00:36:48.485Z,8.35
2022-12-13T00:39:16.896Z,6.75
2022-12-13T00:41:47.567Z,7.45
2022-12-13T00:44:15.296Z,7.75
2022-12-13T00:46:43.081Z,8.43
2022-12-13T00:49:13.261Z,7.63
2022-12-13T00:51:40.647Z,7.82
2022-12-13T00:54:07.938Z,6.53
2022-12-13T00:56:34.943Z,7.13
2022-12-13T00:59:02.376Z,7.60
2022-12-13T01:01:32.877Z,7.97
2022-12-13T01:04:02.738Z,8.57
2022-12-13T01:06:36.357Z,8.02
2022-12-13T01:09:05.647Z,7.63
2022-12-13T01:11:32.917Z,8.38
2022-12-13T01:13:59.880Z,7.20
2022-12-13T01:16:26.827Z,6.78
2022-12-13T01:18:53.841Z,8.27
2022-12-13T01:21:22.195Z,8.80
2022-12-13T01:23:50.394Z,8.38
2022-12-13T01:26:21.457Z,7.95
2022-12-13T01:28:49.484Z,7.65
2022-12-13T01:31:20.029Z,8.98
2022-12-13T01:33:48.706Z,8.60
2022-12-13T01:36:19.663Z,8.55
2022-12-13T01:38:58.495Z,7.93
2022-12-13T01:41:28.877Z,7.90
2022-12-13T01:44:01.428Z,7.65
2022-12-13T01:46:33.772Z,9.02
2022-12-13T01:49:19.602Z,8.40
2022-12-13T01:52:06.630Z,8.20
2022-12-13T01:54:46.415Z,8.88
2022-12-13T01:57:18.112Z,7.57
2022-12-13T01:59:47.624Z,8.52
2022-12-13T02:02:15.673Z,9.23
2022-12-13T02:04:51.968Z,8.15
2022-12-13T02:07:23.497Z,7.60
2022-12-13T02:09:56.414Z,8.60
2022-12-13T02:12:30.782Z,9.43
2022-12-13T02:15:05.277Z,8.63
2022-12-13T02:17:53.542Z,8.63
2022-12-13T02:20:54.263Z,8.68
2022-12-13T02:23:39.381Z,7.38
2022-12-13T02:26:31.390Z,8.30
2022-12-13T06:26:35.855Z,2.72
2022-12-13T06:29:02.027Z,3.78
2022-12-13T06:31:28.187Z,5.15
2022-12-13T06:33:54.535Z,4.75
2022-12-13T06:36:25.401Z,7.32
2022-12-13T06:38:55.612Z,7.30
2022-12-13T06:41:26.463Z,39.92
2022-12-13T06:43:58.717Z,11.10
2022-12-13T06:46:25.927Z,8.20
2022-12-13T06:48:53.571Z,7.10
2022-12-13T06:51:33.080Z,5.85
2022-12-13T06:54:02.967Z,6.25
2022-12-13T06:56:40.605Z,5.97
2022-12-13T06:59:12.553Z,5.72
2022-12-13T07:01:39.519Z,5.32
2022-12-13T07:04:30.156Z,5.38
2022-12-13T07:06:55.146Z,5.18
2022-12-13T07:09:29.072Z,5.97
2022-12-13T07:11:56.708Z,5.25
2022-12-13T07:14:40.467Z,5.78
2022-12-13T07:17:11.859Z,5.75
2022-12-13T07:19:39.280Z,5.80
2022-12-13T07:22:06.952Z,5.60
2022-12-13T07:24:37.773Z,5.53
2022-12-13T07:27:05.348Z,6.75
2022-12-13T07:29:32.672Z,5.88
2022-12-13T07:32:01.462Z,6.43
2022-12-13T07:34:32.383Z,6.18
2022-12-13T07:37:03.580Z,5.88
2022-12-13T07:39:36.864Z,5.25
2022-12-13T07:42:05.316Z,6.80
2022-12-13T07:44:33.882Z,5.90
2022-12-13T07:49:08.974Z,4.47
2022-12-13T07:51:36.352Z,5.85
2022-12-13T07:54:06.759Z,4.63
2022-12-13T07:56:35.673Z,5.20
2022-12-13T07:59:03.399Z,6.35
2022-12-13T08:01:35.229Z,5.72
2022-12-13T08:04:04.320Z,5.27
2022-12-13T08:06:36.239Z,5.78
2022-12-13T08:09:04.496Z,5.72
2022-12-13T08:11:31.936Z,5.72
2022-12-13T08:13:59.209Z,4.53
2022-12-13T08:16:29.353Z,5.25
2022-12-13T08:19:02.970Z,5.60
2022-12-13T08:21:56.671Z,4.82
2022-12-13T08:24:26.797Z,4.28
2022-12-13T08:26:55.447Z,5.25
2022-12-13T08:29:33.890Z,5.55
2022-12-13T08:32:08.681Z,5.40
2022-12-13T08:34:36.108Z,4.80
2022-12-13T08:37:04.325Z,6.35
2022-12-13T08:39:35.585Z,5.30
2022-12-13T08:42:17.148Z,5.80
2022-12-13T08:44:48.224Z,6.45
2022-12-13T08:47:23.015Z,5.90
2022-12-13T08:50:02.517Z,6.90
2022-12-13T08:52:39.407Z,5.75
2022-12-13T08:55:13.855Z,5.68
2022-12-13T08:57:42.922Z,6.50
2022-12-13T09:00:16.738Z,5.80
2022-12-13T09:02:44.695Z,7.55
2022-12-13T09:05:32.226Z,5.97
2022-12-13T09:08:22.967Z,7.07
2022-12-13T09:11:11.383Z,7.18
2022-12-13T09:13:50.024Z,7.82
2022-12-13T09:16:23.132Z,7.50
2022-12-13T09:18:54.800Z,7.60
2022-12-13T09:21:31.603Z,7.25
2022-12-13T09:24:01.886Z,8.48
2022-12-13T09:26:29.953Z,7.20
2022-12-13T09:29:10.523Z,5.30
2022-12-13T09:31:40.476Z,6.75
2022-12-13T09:34:08.836Z,5.80
2022-12-13T09:36:35.765Z,6.45
2022-12-13T09:39:03.630Z,5.97
2022-12-13T09:42:01.431Z,5.32
2022-12-13T09:44:42.721Z,5.93
2022-12-13T09:47:34.948Z,5.85
2022-12-13T09:50:08.576Z,6.35
2022-12-13T09:52:44.635Z,6.20
2022-12-13T09:55:30.257Z,6.03
2022-12-13T09:57:59.322Z,7.90
2022-12-13T10:00:35.887Z,6.78
2022-12-13T10:03:03.828Z,5.28
2022-12-13T10:05:39.818Z,6.55
2022-12-13T10:08:11.647Z,5.53
2022-12-13T10:10:38.861Z,5.93
2022-12-13T10:13:42.801Z,5.82
2022-12-13T10:16:14.040Z,5.88
2022-12-13T10:18:43.117Z,6.68
2022-12-13T15:00:26.366Z,6.57
2022-12-13T15:02:55.741Z,6.70
2022-12-13T15:05:50.189Z,7.95
2022-12-13T15:08:20.367Z,6.63
2022-12-13T15:11:02.160Z,9.82
2022-12-13T15:13:47.222Z,9.65
2022-12-13T15:16:29.694Z,10.73
2022-12-13T15:19:31.116Z,8.85
2022-12-13T15:22:07.704Z,8.77
2022-12-13T15:24:48.738Z,6.57
2022-12-13T15:27:27.313Z,6.40
2022-12-13T15:29:55.246Z,6.55
2022-12-13T15:32:25.399Z,7.32
2022-12-13T15:34:53.161Z,5.88
2022-12-13T15:37:30.261Z,6.13
2022-12-13T15:40:07.989Z,5.45
2022-12-13T15:42:39.228Z,6.50
2022-12-13T15:45:17.656Z,7.05
2022-12-13T15:47:47.614Z,6.22
2022-12-13T15:50:50.439Z,5.57
2022-12-13T15:53:27.262Z,6.38
2022-12-13T15:55:54.780Z,5.63
2022-12-13T15:58:33.464Z,6.07
2022-12-13T16:01:06.016Z,5.35
2022-12-13T16:03:43.506Z,6.30
2022-12-13T16:06:18.072Z,6.32
2022-12-13T16:08:49.631Z,5.00
2022-12-13T16:11:31.890Z,4.53
2022-12-13T16:14:30.706Z,4.95
2022-12-13T16:17:08.335Z,4.43
2022-12-13T16:19:37.210Z,3.72
2022-12-13T16:22:08.685Z,3.53
2022-12-13T16:24:38.382Z,2.65
2022-12-13T16:27:08.497Z,3.13
2022-12-13T16:29:36.146Z,2.58
2022-12-13T16:32:03.508Z,5.85
2022-12-13T16:34:36.136Z,15.10
2022-12-13T16:37:03.597Z,18.80
2022-12-13T16:39:36.246Z,21.77
2022-12-13T16:42:03.301Z,14.82
2022-12-13T16:44:37.570Z,11.52
2022-12-13T16:47:12.560Z,15.05
2022-12-13T16:49:43.875Z,7.22
2022-12-13T16:52:10.908Z,6.50
2022-12-13T16:54:38.085Z,9.50
2022-12-13T16:57:05.030Z,10.15
2022-12-13T16:59:33.382Z,11.57
2022-12-13T17:02:00.536Z,7.43
2022-12-13T17:04:29.095Z,10.65
2022-12-13T17:06:57.138Z,7.63
2022-12-13T17:09:25.683Z,10.60
2022-12-13T17:11:54.404Z,8.65
2022-12-13T17:14:21.762Z,6.47
2022-12-13T17:16:48.840Z,4.80
2022-12-13T17:19:17.568Z,4.78
2022-12-13T17:21:45.420Z,5.88
2022-12-13T17:24:13.155Z,8.88
2022-12-13T17:26:41.609Z,9.30
2022-12-13T17:29:24.799Z,10.60
2022-12-13T17:31:53.611Z,5.82
2022-12-13T17:34:21.592Z,5.97
2022-12-13T17:36:49.127Z,7.70
2022-12-13T17:39:18.792Z,5.32
2022-12-13T17:41:54.470Z,4.95
2022-12-13T17:44:26.613Z,5.85
2022-12-13T17:46:55.677Z,4.28
2022-12-13T17:49:23.791Z,5.70
2022-12-13T17:51:54.380Z,4.38
2022-12-13T17:54:24.018Z,5.05
2022-12-13T17:56:52.246Z,3.70
2022-12-13T17:59:20.188Z,3.72
2022-12-13T18:01:47.907Z,4.43
2022-12-13T18:04:15.492Z,3.97
2022-12-13T18:06:42.872Z,3.13
2022-12-13T18:09:14.294Z,5.88
2022-12-13T18:11:41.521Z,5.53
2022-12-13T20:44:59.706Z,0.30
2022-12-13T20:47:27.486Z,1.08
2022-12-13T20:49:53.493Z,1.30
2022-12-13T20:52:20.736Z,1.55
2022-12-13T20:54:48.795Z,1.73
2022-12-13T20:57:19.036Z,2.08
2022-12-13T20:59:49.499Z,2.10
2022-12-13T21:02:18.641Z,1.50
2022-12-13T21:04:50.637Z,2.70
2022-12-13T21:07:38.395Z,1.88
2022-12-13T21:10:11.727Z,2.13
2022-12-13T21:12:39.195Z,2.28
2022-12-13T21:15:06.692Z,3.05
2022-12-13T21:17:33.893Z,2.55
2022-12-13T21:20:00.866Z,2.70
2022-12-13T21:22:27.934Z,1.63
2022-12-13T21:24:55.588Z,2.65
2022-12-13T21:27:22.846Z,1.90
2022-12-13T21:29:50.110Z,2.40
2022-12-13T21:32:17.257Z,2.25
2022-12-13T21:34:44.463Z,3.00
2022-12-13T21:37:11.319Z,2.33
2022-12-13T21:39:38.368Z,2.05
2022-12-13T21:42:05.581Z,2.45
2022-12-13T21:44:32.917Z,2.75
2022-12-13T21:47:15.352Z,2.78
2022-12-13T21:49:48.752Z,2.78
2022-12-13T21:52:16.811Z,2.60
2022-12-13T21:54:43.734Z,2.72
2022-12-13T21:57:29.540Z,2.70
2022-12-13T21:59:56.489Z,4.78
2022-12-13T22:02:23.352Z,3.85
2022-12-13T22:04:54.410Z,2.70
2022-12-13T22:07:22.674Z,3.40
2022-12-13T22:09:50.413Z,3.42
2022-12-13T22:12:20.400Z,3.70
2022-12-13T22:14:47.803Z,3.72
2022-12-13T22:17:14.997Z,3.40
2022-12-13T22:19:42.161Z,4.72
2022-12-13T22:22:09.530Z,3.13
2022-12-13T22:24:36.336Z,2.72
2022-12-13T22:27:04.114Z,3.33
2022-12-13T22:29:31.088Z,4.40
2022-12-13T22:31:57.882Z,2.78
2022-12-13T22:34:24.705Z,4.03
2022-12-13T22:36:52.264Z,3.60
2022-12-13T22:39:21.208Z,4.18
2022-12-13T22:41:49.162Z,3.25
2022-12-13T22:44:17.439Z,4.15
2022-12-13T22:46:44.512Z,3.80
2022-12-13T22:49:12.194Z,3.88
2022-12-13T22:51:39.562Z,2.65
2022-12-13T22:54:06.964Z,3.28
2022-12-13T22:56:34.061Z,2.47
2022-12-13T22:59:02.324Z,2.60
2022-12-13T23:01:32.404Z,3.47
2022-12-13T23:04:00.098Z,2.85
2022-12-13T23:06:29.879Z,2.80
2022-12-13T23:09:01.403Z,3.92
2022-12-13T23:11:48.457Z,4.15
2022-12-13T23:14:18.906Z,2.60
2022-12-13T23:16:47.155Z,3.13
2022-12-13T23:22:05.306Z,3.65
2022-12-13T23:24:32.430Z,3.90
2022-12-13T23:26:59.469Z,3.22
2022-12-13T23:29:26.561Z,4.20
2022-12-13T23:31:53.773Z,3.30
2022-12-13T23:34:20.680Z,3.72
2022-12-13T23:36:47.583Z,2.83
2022-12-13T23:39:14.665Z,2.88
2022-12-13T23:41:41.963Z,4.00
2022-12-13T23:44:10.619Z,2.85
2022-12-13T23:46:38.386Z,3.90
2022-12-13T23:49:07.336Z,3.17
2022-12-13T23:51:34.806Z,3.42
2022-12-13T23:54:01.914Z,3.00
2022-12-13T23:56:29.654Z,3.33
2022-12-13T23:58:57.102Z,3.88
